sensor_id;sensor_type;location;lat;lon;timestamp;P1;durP1;ratioP1;P2;durP2;ratioP2
15218;SDS011;15623;53.986;11.676;2022-12-07T00:01:29;13.43;;;10.90;;
15218;SDS011;15623;53.986;11.676;2022-12-07T00:03:57;12.27;;;10.47;;
15218;SDS011;15623;53.986;11.676;2022-12-07T00:06:30;13.87;;;10.67;;
15218;SDS011;15623;53.986;11.676;2022-12-07T00:08:57;14.23;;;11.20;;
15218;SDS011;15623;53.986;11.676;2022-12-07T00:11:25;13.53;;;10.13;;
15218;SDS011;15623;53.986;11.676;2022-12-07T00:13:55;13.77;;;10.77;;
15218;SDS011;15623;53.986;11.676;2022-12-07T00:16:23;13.40;;;10.90;;
15218;SDS011;15623;53.986;11.676;2022-12-07T00:18:51;13.93;;;10.77;;
15218;SDS011;15623;53.986;11.676;2022-12-07T00:21:19;12.33;;;10.27;;
15218;SDS011;15623;53.986;11.676;2022-12-07T00:23:47;15.27;;;10.87;;
15218;SDS011;15623;53.986;11.676;2022-12-07T00:26:16;16.07;;;11.27;;
15218;SDS011;15623;53.986;11.676;2022-12-07T00:28:45;14.50;;;10.93;;
15218;SDS011;15623;53.986;11.676;2022-12-07T00:31:15;13.40;;;10.40;;
15218;SDS011;15623;53.986;11.676;2022-12-07T00:33:42;13.47;;;9.97;;
15218;SDS011;15623;53.986;11.676;2022-12-07T00:36:11;13.83;;;9.80;;
15218;SDS011;15623;53.986;11.676;2022-12-07T00:38:40;12.63;;;9.97;;
15218;SDS011;15623;53.986;11.676;2022-12-07T00:41:09;12.20;;;9.23;;
15218;SDS011;15623;53.986;11.676;2022-12-07T00:43:38;13.73;;;10.30;;
15218;SDS011;15623;53.986;11.676;2022-12-07T00:46:05;11.80;;;9.67;;
15218;SDS011;15623;53.986;11.676;2022-12-07T00:48:34;13.47;;;10.10;;
15218;SDS011;15623;53.986;11.676;2022-12-07T00:51:02;15.30;;;10.63;;
15218;SDS011;15623;53.986;11.676;2022-12-07T00:53:29;13.97;;;10.90;;
15218;SDS011;15623;53.986;11.676;2022-12-07T00:55:57;15.63;;;11.00;;
15218;SDS011;15623;53.986;11.676;2022-12-07T00:58:25;15.67;;;11.33;;
15218;SDS011;15623;53.986;11.676;2022-12-07T01:00:53;15.13;;;10.80;;
15218;SDS011;15623;53.986;11.676;2022-12-07T01:03:21;15.73;;;11.63;;
15218;SDS011;15623;53.986;11.676;2022-12-07T01:05:51;15.77;;;10.63;;
15218;SDS011;15623;53.986;11.676;2022-12-07T01:08:19;14.57;;;10.83;;
15218;SDS011;15623;53.986;11.676;2022-12-07T01:10:46;17.33;;;11.37;;
15218;SDS011;15623;53.986;11.676;2022-12-07T01:13:14;17.17;;;11.93;;
15218;SDS011;15623;53.986;11.676;2022-12-07T01:15:42;17.27;;;11.57;;
15218;SDS011;15623;53.986;11.676;2022-12-07T01:18:10;16.00;;;11.50;;
15218;SDS011;15623;53.986;11.676;2022-12-07T01:20:38;18.90;;;12.77;;
15218;SDS011;15623;53.986;11.676;2022-12-07T01:23:07;20.87;;;13.37;;
15218;SDS011;15623;53.986;11.676;2022-12-07T01:25:35;22.17;;;13.77;;
15218;SDS011;15623;53.986;11.676;2022-12-07T01:28:02;22.17;;;13.93;;
15218;SDS011;15623;53.986;11.676;2022-12-07T01:30:30;21.97;;;14.10;;
15218;SDS011;15623;53.986;11.676;2022-12-07T01:32:58;20.53;;;13.40;;
15218;SDS011;15623;53.986;11.676;2022-12-07T01:35:25;24.53;;;15.10;;
15218;SDS011;15623;53.986;11.676;2022-12-07T01:37:53;28.17;;;16.17;;
15218;SDS011;15623;53.986;11.676;2022-12-07T01:40:22;23.57;;;14.43;;
15218;SDS011;15623;53.986;11.676;2022-12-07T01:42:49;21.30;;;13.97;;
15218;SDS011;15623;53.986;11.676;2022-12-07T01:48:11;26.87;;;15.33;;
15218;SDS011;15623;53.986;11.676;2022-12-07T01:50:40;27.87;;;16.10;;
15218;SDS011;15623;53.986;11.676;2022-12-07T01:53:08;24.77;;;15.13;;
15218;SDS011;15623;53.986;11.676;2022-12-07T01:55:40;25.63;;;15.60;;
15218;SDS011;15623;53.986;11.676;2022-12-07T01:58:10;25.53;;;15.53;;
15218;SDS011;15623;53.986;11.676;2022-12-07T02:00:38;26.70;;;15.60;;
15218;SDS011;15623;53.986;11.676;2022-12-07T02:03:07;24.57;;;15.67;;
15218;SDS011;15623;53.986;11.676;2022-12-07T02:05:35;23.80;;;15.20;;
15218;SDS011;15623;53.986;11.676;2022-12-07T02:08:08;24.97;;;15.43;;
15218;SDS011;15623;53.986;11.676;2022-12-07T02:10:39;25.57;;;15.53;;
15218;SDS011;15623;53.986;11.676;2022-12-07T02:13:08;27.67;;;15.67;;
15218;SDS011;15623;53.986;11.676;2022-12-07T02:15:39;30.20;;;15.77;;
15218;SDS011;15623;53.986;11.676;2022-12-07T02:18:09;28.70;;;16.13;;
15218;SDS011;15623;53.986;11.676;2022-12-07T02:20:39;31.43;;;17.80;;
15218;SDS011;15623;53.986;11.676;2022-12-07T02:23:39;28.80;;;16.97;;
15218;SDS011;15623;53.986;11.676;2022-12-07T02:29:07;31.77;;;17.67;;
15218;SDS011;15623;53.986;11.676;2022-12-07T02:31:37;32.07;;;18.20;;
15218;SDS011;15623;53.986;11.676;2022-12-07T02:34:07;34.37;;;19.17;;
15218;SDS011;15623;53.986;11.676;2022-12-07T02:36:36;34.67;;;20.50;;
15218;SDS011;15623;53.986;11.676;2022-12-07T02:39:07;42.00;;;21.80;;
15218;SDS011;15623;53.986;11.676;2022-12-07T02:41:40;42.97;;;21.53;;
15218;SDS011;15623;53.986;11.676;2022-12-07T02:44:13;40.23;;;21.53;;
15218;SDS011;15623;53.986;11.676;2022-12-07T02:46:42;40.67;;;21.10;;
15218;SDS011;15623;53.986;11.676;2022-12-07T02:49:10;43.13;;;21.53;;
15218;SDS011;15623;53.986;11.676;2022-12-07T02:51:38;39.13;;;21.00;;
15218;SDS011;15623;53.986;11.676;2022-12-07T02:54:08;44.43;;;21.33;;
15218;SDS011;15623;53.986;11.676;2022-12-07T02:56:39;34.73;;;20.27;;
15218;SDS011;15623;53.986;11.676;2022-12-07T02:59:12;39.30;;;20.53;;
15218;SDS011;15623;53.986;11.676;2022-12-07T03:01:46;37.17;;;21.00;;
15218;SDS011;15623;53.986;11.676;2022-12-07T03:04:20;37.00;;;19.97;;
15218;SDS011;15623;53.986;11.676;2022-12-07T03:06:53;41.03;;;19.70;;
15218;SDS011;15623;53.986;11.676;2022-12-07T03:09:26;37.97;;;20.53;;
15218;SDS011;15623;53.986;11.676;2022-12-07T03:11:57;40.20;;;21.27;;
15218;SDS011;15623;53.986;11.676;2022-12-07T03:14:30;35.40;;;19.33;;
15218;SDS011;15623;53.986;11.676;2022-12-07T03:17:00;36.70;;;19.93;;
15218;SDS011;15623;53.986;11.676;2022-12-07T03:19:28;35.53;;;18.87;;
15218;SDS011;15623;53.986;11.676;2022-12-07T03:21:59;36.13;;;20.03;;
15218;SDS011;15623;53.986;11.676;2022-12-07T03:24:29;39.27;;;20.60;;
15218;SDS011;15623;53.986;11.676;2022-12-07T03:26:59;37.27;;;20.23;;
15218;SDS011;15623;53.986;11.676;2022-12-07T03:29:31;31.93;;;19.23;;
15218;SDS011;15623;53.986;11.676;2022-12-07T03:32:02;33.10;;;19.03;;
15218;SDS011;15623;53.986;11.676;2022-12-07T03:34:31;33.40;;;18.33;;
15218;SDS011;15623;53.986;11.676;2022-12-07T03:37:02;28.03;;;17.10;;
15218;SDS011;15623;53.986;11.676;2022-12-07T03:39:33;27.47;;;16.80;;
15218;SDS011;15623;53.986;11.676;2022-12-07T03:42:01;29.87;;;17.20;;
15218;SDS011;15623;53.986;11.676;2022-12-07T03:44:32;34.70;;;19.67;;
15218;SDS011;15623;53.986;11.676;2022-12-07T03:47:01;35.87;;;20.13;;
15218;SDS011;15623;53.986;11.676;2022-12-07T03:49:30;31.83;;;17.93;;
15218;SDS011;15623;53.986;11.676;2022-12-07T03:52:00;34.30;;;18.13;;
15218;SDS011;15623;53.986;11.676;2022-12-07T03:54:30;28.97;;;17.33;;
15218;SDS011;15623;53.986;11.676;2022-12-07T03:57:00;27.43;;;15.27;;
15218;SDS011;15623;53.986;11.676;2022-12-07T03:59:28;24.60;;;15.17;;
15218;SDS011;15623;53.986;11.676;2022-12-07T04:02:02;23.70;;;15.27;;
15218;SDS011;15623;53.986;11.676;2022-12-07T04:04:30;23.87;;;14.13;;
15218;SDS011;15623;53.986;11.676;2022-12-07T04:06:57;21.43;;;13.90;;
15218;SDS011;15623;53.986;11.676;2022-12-07T04:09:25;20.97;;;13.13;;
15218;SDS011;15623;53.986;11.676;2022-12-07T04:11:52;16.93;;;10.80;;
15218;SDS011;15623;53.986;11.676;2022-12-07T04:14:22;11.33;;;8.97;;
15218;SDS011;15623;53.986;11.676;2022-12-07T04:16:51;8.30;;;7.10;;
15218;SDS011;15623;53.986;11.676;2022-12-07T04:19:20;6.03;;;5.43;;
15218;SDS011;15623;53.986;11.676;2022-12-07T04:21:48;5.57;;;5.07;;
15218;SDS011;15623;53.986;11.676;2022-12-07T04:24:16;5.10;;;4.60;;
15218;SDS011;15623;53.986;11.676;2022-12-07T04:26:50;5.87;;;4.90;;
15218;SDS011;15623;53.986;11.676;2022-12-07T04:29:25;5.53;;;4.87;;
15218;SDS011;15623;53.986;11.676;2022-12-07T04:32:17;6.80;;;5.77;;
15218;SDS011;15623;53.986;11.676;2022-12-07T04:34:46;8.60;;;7.03;;
15218;SDS011;15623;53.986;11.676;2022-12-07T04:37:17;13.90;;;7.87;;
15218;SDS011;15623;53.986;11.676;2022-12-07T04:39:52;15.57;;;9.50;;
15218;SDS011;15623;53.986;11.676;2022-12-07T04:42:37;14.17;;;9.07;;
15218;SDS011;15623;53.986;11.676;2022-12-07T04:45:05;9.87;;;8.83;;
15218;SDS011;15623;53.986;11.676;2022-12-07T04:47:33;11.53;;;8.40;;
15218;SDS011;15623;53.986;11.676;2022-12-07T04:50:02;12.33;;;8.73;;
15218;SDS011;15623;53.986;11.676;2022-12-07T04:52:29;9.93;;;7.83;;
15218;SDS011;15623;53.986;11.676;2022-12-07T04:54:57;7.90;;;7.20;;
15218;SDS011;15623;53.986;11.676;2022-12-07T04:57:24;7.93;;;7.03;;
15218;SDS011;15623;53.986;11.676;2022-12-07T04:59:52;7.47;;;6.77;;
15218;SDS011;15623;53.986;11.676;2022-12-07T05:02:19;8.30;;;7.50;;
15218;SDS011;15623;53.986;11.676;2022-12-07T05:04:46;9.37;;;7.00;;
15218;SDS011;15623;53.986;11.676;2022-12-07T05:07:15;7.97;;;7.17;;
15218;SDS011;15623;53.986;11.676;2022-12-07T05:09:43;9.70;;;8.10;;
15218;SDS011;15623;53.986;11.676;2022-12-07T05:12:11;9.37;;;7.63;;
15218;SDS011;15623;53.986;11.676;2022-12-07T05:14:38;9.90;;;8.53;;
15218;SDS011;15623;53.986;11.676;2022-12-07T05:17:09;12.60;;;8.43;;
15218;SDS011;15623;53.986;11.676;2022-12-07T05:19:37;10.27;;;8.93;;
15218;SDS011;15623;53.986;11.676;2022-12-07T05:22:04;12.90;;;8.43;;
15218;SDS011;15623;53.986;11.676;2022-12-07T05:24:33;9.73;;;8.60;;
15218;SDS011;15623;53.986;11.676;2022-12-07T05:27:04;12.30;;;10.07;;
15218;SDS011;15623;53.986;11.676;2022-12-07T05:29:37;13.03;;;9.60;;
15218;SDS011;15623;53.986;11.676;2022-12-07T05:32:04;14.10;;;10.17;;
15218;SDS011;15623;53.986;11.676;2022-12-07T05:35:17;16.53;;;10.30;;
15218;SDS011;15623;53.986;11.676;2022-12-07T05:40:35;11.47;;;8.90;;
15218;SDS011;15623;53.986;11.676;2022-12-07T05:43:03;9.67;;;8.77;;
15218;SDS011;15623;53.986;11.676;2022-12-07T05:45:30;7.63;;;6.93;;
15218;SDS011;15623;53.986;11.676;2022-12-07T05:47:58;7.10;;;6.50;;
15218;SDS011;15623;53.986;11.676;2022-12-07T05:50:29;5.63;;;5.13;;
15218;SDS011;15623;53.986;11.676;2022-12-07T05:52:56;4.77;;;4.37;;
15218;SDS011;15623;53.986;11.676;2022-12-07T05:55:24;6.37;;;4.60;;
15218;SDS011;15623;53.986;11.676;2022-12-07T05:57:53;4.27;;;3.97;;
15218;SDS011;15623;53.986;11.676;2022-12-07T06:00:38;4.63;;;3.30;;
15218;SDS011;15623;53.986;11.676;2022-12-07T06:03:08;3.30;;;3.10;;
15218;SDS011;15623;53.986;11.676;2022-12-07T06:05:56;4.50;;;2.97;;
15218;SDS011;15623;53.986;11.676;2022-12-07T06:17:50;3.80;;;3.40;;
15218;SDS011;15623;53.986;11.676;2022-12-07T06:20:33;4.13;;;3.83;;
15218;SDS011;15623;53.986;11.676;2022-12-07T06:23:03;5.13;;;4.70;;
15218;SDS011;15623;53.986;11.676;2022-12-07T06:25:31;4.80;;;4.40;;
15218;SDS011;15623;53.986;11.676;2022-12-07T06:27:58;5.10;;;4.60;;
15218;SDS011;15623;53.986;11.676;2022-12-07T06:30:30;5.40;;;4.90;;
15218;SDS011;15623;53.986;11.676;2022-12-07T06:33:11;6.00;;;5.33;;
15218;SDS011;15623;53.986;11.676;2022-12-07T06:35:39;6.43;;;5.83;;
15218;SDS011;15623;53.986;11.676;2022-12-07T06:38:07;6.40;;;5.80;;
15218;SDS011;15623;53.986;11.676;2022-12-07T06:40:34;6.80;;;6.10;;
15218;SDS011;15623;53.986;11.676;2022-12-07T06:43:01;7.43;;;6.50;;
15218;SDS011;15623;53.986;11.676;2022-12-07T06:45:29;7.07;;;6.37;;
15218;SDS011;15623;53.986;11.676;2022-12-07T06:47:56;6.43;;;5.83;;
15218;SDS011;15623;53.986;11.676;2022-12-07T06:50:25;9.33;;;6.40;;
15218;SDS011;15623;53.986;11.676;2022-12-07T06:52:53;6.57;;;5.97;;
15218;SDS011;15623;53.986;11.676;2022-12-07T06:55:20;6.77;;;5.50;;
15218;SDS011;15623;53.986;11.676;2022-12-07T06:57:48;6.37;;;5.33;;
15218;SDS011;15623;53.986;11.676;2022-12-07T07:00:16;5.90;;;5.40;;
15218;SDS011;15623;53.986;11.676;2022-12-07T07:02:50;4.90;;;4.50;;
15218;SDS011;15623;53.986;11.676;2022-12-07T07:05:27;4.87;;;4.47;;
15218;SDS011;15623;53.986;11.676;2022-12-07T07:07:57;5.13;;;4.63;;
15218;SDS011;15623;53.986;11.676;2022-12-07T07:10:30;5.80;;;4.90;;
15218;SDS011;15623;53.986;11.676;2022-12-07T07:13:11;5.83;;;4.37;;
15218;SDS011;15623;53.986;11.676;2022-12-07T07:15:52;4.90;;;4.40;;
15218;SDS011;15623;53.986;11.676;2022-12-07T07:18:20;5.60;;;5.20;;
15218;SDS011;15623;53.986;11.676;2022-12-07T07:20:49;6.13;;;5.53;;
15218;SDS011;15623;53.986;11.676;2022-12-07T07:23:17;5.50;;;5.00;;
15218;SDS011;15623;53.986;11.676;2022-12-07T07:25:45;4.90;;;4.10;;
15218;SDS011;15623;53.986;11.676;2022-12-07T07:28:12;4.80;;;4.30;;
15218;SDS011;15623;53.986;11.676;2022-12-07T07:30:44;4.70;;;4.30;;
15218;SDS011;15623;53.986;11.676;2022-12-07T07:33:12;4.57;;;4.17;;
15218;SDS011;15623;53.986;11.676;2022-12-07T07:35:39;5.47;;;5.07;;
15218;SDS011;15623;53.986;11.676;2022-12-07T07:38:08;9.20;;;6.80;;
15218;SDS011;15623;53.986;11.676;2022-12-07T07:40:35;7.47;;;6.77;;
15218;SDS011;15623;53.986;11.676;2022-12-07T07:43:03;10.43;;;8.63;;
15218;SDS011;15623;53.986;11.676;2022-12-07T07:45:31;10.73;;;9.27;;
15218;SDS011;15623;53.986;11.676;2022-12-07T07:47:58;11.20;;;9.10;;
15218;SDS011;15623;53.986;11.676;2022-12-07T07:50:26;12.37;;;9.67;;
15218;SDS011;15623;53.986;11.676;2022-12-07T07:52:55;12.50;;;9.87;;
15218;SDS011;15623;53.986;11.676;2022-12-07T07:55:26;13.30;;;10.27;;
15218;SDS011;15623;53.986;11.676;2022-12-07T07:58:12;15.60;;;10.57;;
15218;SDS011;15623;53.986;11.676;2022-12-07T08:00:40;15.97;;;11.17;;
15218;SDS011;15623;53.986;11.676;2022-12-07T08:03:09;13.67;;;10.67;;
15218;SDS011;15623;53.986;11.676;2022-12-07T08:05:37;13.77;;;11.07;;
15218;SDS011;15623;53.986;11.676;2022-12-07T08:08:16;14.20;;;10.97;;
15218;SDS011;15623;53.986;11.676;2022-12-07T08:10:45;17.93;;;11.47;;
15218;SDS011;15623;53.986;11.676;2022-12-07T08:13:15;16.53;;;11.07;;
15218;SDS011;15623;53.986;11.676;2022-12-07T08:15:44;13.20;;;11.80;;
15218;SDS011;15623;53.986;11.676;2022-12-07T08:18:12;12.47;;;10.97;;
15218;SDS011;15623;53.986;11.676;2022-12-07T08:20:40;12.00;;;10.70;;
15218;SDS011;15623;53.986;11.676;2022-12-07T08:23:08;14.27;;;11.23;;
15218;SDS011;15623;53.986;11.676;2022-12-07T08:25:35;13.50;;;11.17;;
15218;SDS011;15623;53.986;11.676;2022-12-07T08:28:04;13.73;;;10.90;;
15218;SDS011;15623;53.986;11.676;2022-12-07T08:30:32;12.07;;;9.83;;
15218;SDS011;15623;53.986;11.676;2022-12-07T08:32:59;10.83;;;9.73;;
15218;SDS011;15623;53.986;11.676;2022-12-07T08:35:27;10.60;;;9.50;;
15218;SDS011;15623;53.986;11.676;2022-12-07T08:37:55;12.00;;;9.43;;
15218;SDS011;15623;53.986;11.676;2022-12-07T08:40:23;11.17;;;9.13;;
15218;SDS011;15623;53.986;11.676;2022-12-07T08:42:50;10.43;;;9.33;;
15218;SDS011;15623;53.986;11.676;2022-12-07T08:45:21;14.50;;;9.70;;
15218;SDS011;15623;53.986;11.676;2022-12-07T08:47:49;10.83;;;9.30;;
15218;SDS011;15623;53.986;11.676;2022-12-07T08:50:17;14.47;;;9.77;;
15218;SDS011;15623;53.986;11.676;2022-12-07T08:52:47;11.27;;;9.70;;
15218;SDS011;15623;53.986;11.676;2022-12-07T08:55:15;10.73;;;9.63;;
15218;SDS011;15623;53.986;11.676;2022-12-07T08:57:42;14.03;;;9.87;;
15218;SDS011;15623;53.986;11.676;2022-12-07T09:00:10;14.23;;;10.40;;
15218;SDS011;15623;53.986;11.676;2022-12-07T09:02:40;12.23;;;10.00;;
15218;SDS011;15623;53.986;11.676;2022-12-07T09:05:07;11.00;;;9.90;;
15218;SDS011;15623;53.986;11.676;2022-12-07T09:07:35;13.53;;;10.60;;
15218;SDS011;15623;53.986;11.676;2022-12-07T09:10:04;10.53;;;9.43;;
15218;SDS011;15623;53.986;11.676;2022-12-07T09:12:31;11.63;;;9.40;;
15218;SDS011;15623;53.986;11.676;2022-12-07T09:14:59;10.67;;;9.23;;
15218;SDS011;15623;53.986;11.676;2022-12-07T09:17:27;9.67;;;8.67;;
15218;SDS011;15623;53.986;11.676;2022-12-07T09:19:56;8.50;;;7.73;;
15218;SDS011;15623;53.986;11.676;2022-12-07T09:22:28;7.80;;;6.83;;
15218;SDS011;15623;53.986;11.676;2022-12-07T09:24:55;7.27;;;6.57;;
15218;SDS011;15623;53.986;11.676;2022-12-07T09:27:22;7.57;;;6.87;;
15218;SDS011;15623;53.986;11.676;2022-12-07T09:29:50;6.60;;;6.07;;
15218;SDS011;15623;53.986;11.676;2022-12-07T09:32:19;6.57;;;5.23;;
15218;SDS011;15623;53.986;11.676;2022-12-07T09:34:47;6.47;;;5.40;;
15218;SDS011;15623;53.986;11.676;2022-12-07T09:37:16;5.90;;;5.40;;
15218;SDS011;15623;53.986;11.676;2022-12-07T09:39:43;6.43;;;5.20;;
15218;SDS011;15623;53.986;11.676;2022-12-07T09:42:19;5.77;;;5.20;;
15218;SDS011;15623;53.986;11.676;2022-12-07T09:44:52;5.70;;;5.20;;
15218;SDS011;15623;53.986;11.676;2022-12-07T09:47:20;5.73;;;5.30;;
15218;SDS011;15623;53.986;11.676;2022-12-07T09:49:58;6.57;;;5.17;;
15218;SDS011;15623;53.986;11.676;2022-12-07T09:52:28;5.00;;;4.60;;
15218;SDS011;15623;53.986;11.676;2022-12-07T09:54:57;5.40;;;4.90;;
15218;SDS011;15623;53.986;11.676;2022-12-07T09:57:28;5.10;;;4.70;;
15218;SDS011;15623;53.986;11.676;2022-12-07T10:00:00;5.00;;;4.60;;
15218;SDS011;15623;53.986;11.676;2022-12-07T10:02:33;6.70;;;5.13;;
15218;SDS011;15623;53.986;11.676;2022-12-07T10:05:02;5.30;;;4.80;;
15218;SDS011;15623;53.986;11.676;2022-12-07T10:07:32;5.23;;;4.83;;
15218;SDS011;15623;53.986;11.676;2022-12-07T10:09:59;6.43;;;4.97;;
15218;SDS011;15623;53.986;11.676;2022-12-07T10:12:32;5.40;;;4.90;;
15218;SDS011;15623;53.986;11.676;2022-12-07T10:15:19;6.10;;;5.50;;
15218;SDS011;15623;53.986;11.676;2022-12-07T10:17:47;7.60;;;4.30;;
15218;SDS011;15623;53.986;11.676;2022-12-07T10:20:18;4.80;;;4.17;;
15218;SDS011;15623;53.986;11.676;2022-12-07T10:23:01;3.83;;;2.47;;
15218;SDS011;15623;53.986;11.676;2022-12-07T10:25:31;2.60;;;1.73;;
15218;SDS011;15623;53.986;11.676;2022-12-07T10:28:00;5.90;;;2.07;;
15218;SDS011;15623;53.986;11.676;2022-12-07T10:30:28;2.33;;;1.40;;
15218;SDS011;15623;53.986;11.676;2022-12-07T10:32:55;5.60;;;2.00;;
15218;SDS011;15623;53.986;11.676;2022-12-07T10:35:24;2.70;;;1.80;;
15218;SDS011;15623;53.986;11.676;2022-12-07T10:37:53;3.60;;;2.20;;
15218;SDS011;15623;53.986;11.676;2022-12-07T10:40:30;4.77;;;1.80;;
15218;SDS011;15623;53.986;11.676;2022-12-07T10:43:02;4.80;;;1.67;;
15218;SDS011;15623;53.986;11.676;2022-12-07T10:45:30;4.17;;;2.37;;
15218;SDS011;15623;53.986;11.676;2022-12-07T10:47:59;3.53;;;1.53;;
15218;SDS011;15623;53.986;11.676;2022-12-07T10:50:34;5.87;;;1.57;;
15218;SDS011;15623;53.986;11.676;2022-12-07T10:53:09;4.37;;;1.83;;
15218;SDS011;15623;53.986;11.676;2022-12-07T10:55:50;4.57;;;1.70;;
15218;SDS011;15623;53.986;11.676;2022-12-07T10:58:29;3.50;;;1.60;;
15218;SDS011;15623;53.986;11.676;2022-12-07T11:01:00;2.20;;;1.50;;
15218;SDS011;15623;53.986;11.676;2022-12-07T11:03:40;5.27;;;1.40;;
15218;SDS011;15623;53.986;11.676;2022-12-07T11:06:14;3.23;;;1.70;;
15218;SDS011;15623;53.986;11.676;2022-12-07T11:08:47;5.07;;;1.50;;
15218;SDS011;15623;53.986;11.676;2022-12-07T11:11:21;10.60;;;1.60;;
15218;SDS011;15623;53.986;11.676;2022-12-07T11:13:52;3.47;;;1.60;;
15218;SDS011;15623;53.986;11.676;2022-12-07T11:16:32;4.20;;;1.40;;
15218;SDS011;15623;53.986;11.676;2022-12-07T11:19:14;4.47;;;1.50;;
15218;SDS011;15623;53.986;11.676;2022-12-07T11:21:48;2.30;;;1.20;;
15218;SDS011;15623;53.986;11.676;2022-12-07T11:24:17;5.70;;;1.50;;
15218;SDS011;15623;53.986;11.676;2022-12-07T11:26:50;1.90;;;1.30;;
15218;SDS011;15623;53.986;11.676;2022-12-07T11:29:32;4.33;;;1.60;;
15218;SDS011;15623;53.986;11.676;2022-12-07T11:32:11;2.67;;;1.30;;
15218;SDS011;15623;53.986;11.676;2022-12-07T11:34:43;3.40;;;1.50;;
15218;SDS011;15623;53.986;11.676;2022-12-07T11:37:13;4.53;;;1.60;;
15218;SDS011;15623;53.986;11.676;2022-12-07T11:39:44;3.50;;;1.50;;
15218;SDS011;15623;53.986;11.676;2022-12-07T11:42:19;3.93;;;1.40;;
15218;SDS011;15623;53.986;11.676;2022-12-07T11:44:50;4.20;;;0.93;;
15218;SDS011;15623;53.986;11.676;2022-12-07T11:47:20;2.83;;;1.23;;
15218;SDS011;15623;53.986;11.676;2022-12-07T11:49:51;4.97;;;1.13;;
15218;SDS011;15623;53.986;11.676;2022-12-07T11:52:22;4.43;;;1.40;;
15218;SDS011;15623;53.986;11.676;2022-12-07T11:54:51;1.97;;;1.00;;
15218;SDS011;15623;53.986;11.676;2022-12-07T11:57:22;2.37;;;1.20;;
15218;SDS011;15623;53.986;11.676;2022-12-07T11:59:53;2.40;;;1.30;;
15218;SDS011;15623;53.986;11.676;2022-12-07T12:02:26;3.43;;;1.10;;
15218;SDS011;15623;53.986;11.676;2022-12-07T12:04:55;3.13;;;1.47;;
15218;SDS011;15623;53.986;11.676;2022-12-07T12:07:28;3.50;;;1.00;;
15218;SDS011;15623;53.986;11.676;2022-12-07T12:09:56;2.73;;;0.77;;
15218;SDS011;15623;53.986;11.676;2022-12-07T12:15:17;3.53;;;1.33;;
15218;SDS011;15623;53.986;11.676;2022-12-07T12:20:35;1.70;;;1.00;;
15218;SDS011;15623;53.986;11.676;2022-12-07T12:23:06;3.53;;;0.90;;
15218;SDS011;15623;53.986;11.676;2022-12-07T12:25:37;2.57;;;1.03;;
15218;SDS011;15623;53.986;11.676;2022-12-07T12:28:15;2.13;;;0.90;;
15218;SDS011;15623;53.986;11.676;2022-12-07T12:30:46;4.67;;;1.07;;
15218;SDS011;15623;53.986;11.676;2022-12-07T12:33:30;2.23;;;0.90;;
15218;SDS011;15623;53.986;11.676;2022-12-07T12:36:19;2.63;;;1.00;;
15218;SDS011;15623;53.986;11.676;2022-12-07T12:38:50;2.33;;;1.00;;
15218;SDS011;15623;53.986;11.676;2022-12-07T12:44:08;4.47;;;0.80;;
15218;SDS011;15623;53.986;11.676;2022-12-07T12:46:56;2.27;;;0.80;;
15218;SDS011;15623;53.986;11.676;2022-12-07T12:54:59;3.07;;;0.97;;
15218;SDS011;15623;53.986;11.676;2022-12-07T12:57:28;2.57;;;1.00;;
15218;SDS011;15623;53.986;11.676;2022-12-07T12:59:56;4.17;;;0.80;;
15218;SDS011;15623;53.986;11.676;2022-12-07T13:02:25;2.60;;;0.70;;
15218;SDS011;15623;53.986;11.676;2022-12-07T13:04:54;4.80;;;1.20;;
15218;SDS011;15623;53.986;11.676;2022-12-07T13:10:18;4.00;;;0.80;;
15218;SDS011;15623;53.986;11.676;2022-12-07T13:12:54;3.43;;;0.90;;
15218;SDS011;15623;53.986;11.676;2022-12-07T13:15:32;1.53;;;0.90;;
15218;SDS011;15623;53.986;11.676;2022-12-07T13:18:03;3.87;;;0.87;;
15218;SDS011;15623;53.986;11.676;2022-12-07T13:23:26;3.70;;;1.20;;
15218;SDS011;15623;53.986;11.676;2022-12-07T13:25:55;2.43;;;0.80;;
15218;SDS011;15623;53.986;11.676;2022-12-07T13:28:26;2.03;;;0.70;;
15218;SDS011;15623;53.986;11.676;2022-12-07T13:31:03;2.20;;;0.90;;
15218;SDS011;15623;53.986;11.676;2022-12-07T13:33:33;1.47;;;0.80;;
15218;SDS011;15623;53.986;11.676;2022-12-07T13:36:01;2.00;;;0.60;;
15218;SDS011;15623;53.986;11.676;2022-12-07T13:38:29;0.57;;;0.40;;
15218;SDS011;15623;53.986;11.676;2022-12-07T13:41:01;1.97;;;0.60;;
15218;SDS011;15623;53.986;11.676;2022-12-07T13:43:28;1.50;;;0.50;;
15218;SDS011;15623;53.986;11.676;2022-12-07T13:45:56;0.60;;;0.50;;
15218;SDS011;15623;53.986;11.676;2022-12-07T13:48:28;0.90;;;0.40;;
15218;SDS011;15623;53.986;11.676;2022-12-07T13:51:00;0.80;;;0.33;;
15218;SDS011;15623;53.986;11.676;2022-12-07T13:53:28;1.00;;;0.60;;
15218;SDS011;15623;53.986;11.676;2022-12-07T13:55:56;0.53;;;0.40;;
15218;SDS011;15623;53.986;11.676;2022-12-07T13:58:24;1.27;;;0.50;;
15218;SDS011;15623;53.986;11.676;2022-12-07T14:00:52;1.67;;;0.60;;
15218;SDS011;15623;53.986;11.676;2022-12-07T14:03:23;1.53;;;0.63;;
15218;SDS011;15623;53.986;11.676;2022-12-07T14:06:05;1.47;;;1.10;;
15218;SDS011;15623;53.986;11.676;2022-12-07T14:08:33;4.13;;;0.70;;
15218;SDS011;15623;53.986;11.676;2022-12-07T14:11:00;1.23;;;0.50;;
15218;SDS011;15623;53.986;11.676;2022-12-07T14:13:29;1.27;;;0.80;;
15218;SDS011;15623;53.986;11.676;2022-12-07T14:15:59;0.70;;;0.57;;
15218;SDS011;15623;53.986;11.676;2022-12-07T14:18:27;1.07;;;0.47;;
15218;SDS011;15623;53.986;11.676;2022-12-07T14:21:14;0.90;;;0.60;;
15218;SDS011;15623;53.986;11.676;2022-12-07T14:23:42;1.03;;;0.50;;
15218;SDS011;15623;53.986;11.676;2022-12-07T14:26:11;1.93;;;0.70;;
15218;SDS011;15623;53.986;11.676;2022-12-07T14:28:39;0.60;;;0.60;;
15218;SDS011;15623;53.986;11.676;2022-12-07T14:31:09;2.07;;;0.50;;
15218;SDS011;15623;53.986;11.676;2022-12-07T14:33:37;1.17;;;0.43;;
15218;SDS011;15623;53.986;11.676;2022-12-07T14:36:07;0.50;;;0.50;;
15218;SDS011;15623;53.986;11.676;2022-12-07T14:38:35;2.27;;;0.60;;
15218;SDS011;15623;53.986;11.676;2022-12-07T14:41:03;0.50;;;0.50;;
15218;SDS011;15623;53.986;11.676;2022-12-07T14:43:48;0.73;;;0.60;;
15218;SDS011;15623;53.986;11.676;2022-12-07T14:46:16;1.30;;;0.73;;
15218;SDS011;15623;53.986;11.676;2022-12-07T14:48:43;1.13;;;0.70;;
15218;SDS011;15623;53.986;11.676;2022-12-07T14:51:12;2.43;;;0.73;;
15218;SDS011;15623;53.986;11.676;2022-12-07T14:53:40;0.70;;;0.53;;
15218;SDS011;15623;53.986;11.676;2022-12-07T14:56:08;1.73;;;0.70;;
15218;SDS011;15623;53.986;11.676;2022-12-07T14:58:36;1.13;;;0.57;;
15218;SDS011;15623;53.986;11.676;2022-12-07T15:01:04;1.53;;;0.53;;
15218;SDS011;15623;53.986;11.676;2022-12-07T15:03:31;1.17;;;0.50;;
15218;SDS011;15623;53.986;11.676;2022-12-07T15:06:00;1.27;;;0.60;;
15218;SDS011;15623;53.986;11.676;2022-12-07T15:08:29;1.23;;;0.60;;
15218;SDS011;15623;53.986;11.676;2022-12-07T15:10:56;1.80;;;0.50;;
15218;SDS011;15623;53.986;11.676;2022-12-07T15:13:24;1.03;;;0.60;;
15218;SDS011;15623;53.986;11.676;2022-12-07T15:16:09;1.30;;;0.60;;
15218;SDS011;15623;53.986;11.676;2022-12-07T15:18:37;0.80;;;0.50;;
15218;SDS011;15623;53.986;11.676;2022-12-07T15:21:05;1.37;;;0.53;;
15218;SDS011;15623;53.986;11.676;2022-12-07T15:23:34;0.77;;;0.60;;